createdAt,value
2023-03-10T00:01:50.636Z,1.10
2023-03-10T00:04:17.434Z,0.90
2023-03-10T00:06:44.314Z,1.40
2023-03-10T00:09:12.270Z,0.77
2023-03-10T00:11:39.116Z,0.43
2023-03-10T00:14:05.922Z,0.70
2023-03-10T00:16:32.819Z,0.53
2023-03-10T00:18:59.726Z,0.77
2023-03-10T00:21:30.179Z,1.37
2023-03-10T00:23:57.857Z,0.60
2023-03-10T00:26:27.383Z,0.63
2023-03-10T00:28:55.027Z,0.50
2023-03-10T00:31:25.046Z,4.73
2023-03-10T00:33:52.472Z,0.70
2023-03-10T00:36:25.122Z,0.90
2023-03-10T00:38:54.166Z,0.50
2023-03-10T00:41:23.892Z,0.63
2023-03-10T00:43:51.474Z,0.85
2023-03-10T00:46:19.520Z,0.40
2023-03-10T00:48:46.878Z,0.70
2023-03-10T00:51:13.881Z,0.40
2023-03-10T00:53:41.680Z,2.40
2023-03-10T00:56:18.700Z,0.43
2023-03-10T00:58:46.569Z,0.67
2023-03-10T01:01:35.735Z,0.47
2023-03-10T01:04:05.810Z,0.33
2023-03-10T01:06:33.107Z,1.13
2023-03-10T01:09:00.073Z,0.70
2023-03-10T01:11:28.983Z,0.60
2023-03-10T01:13:59.649Z,0.43
2023-03-10T01:16:27.597Z,0.68
2023-03-10T01:18:55.828Z,0.70
2023-03-10T01:21:25.731Z,0.60
2023-03-10T01:23:53.026Z,0.57
2023-03-10T01:26:20.400Z,0.93
2023-03-10T01:28:48.571Z,0.67
2023-03-10T01:31:16.731Z,1.13
2023-03-10T01:33:45.827Z,0.50
2023-03-10T01:36:21.551Z,0.40
2023-03-10T01:38:49.185Z,0.50
2023-03-10T01:41:16.700Z,0.53
2023-03-10T01:43:54.917Z,0.80
2023-03-10T01:46:37.198Z,0.40
2023-03-10T01:49:14.186Z,0.70
2023-03-10T01:51:46.466Z,0.53
2023-03-10T01:54:19.972Z,1.17
2023-03-10T01:56:49.621Z,0.50
2023-03-10T01:59:16.852Z,0.32
2023-03-10T02:01:43.916Z,0.70
2023-03-10T02:04:23.282Z,0.70
2023-03-10T02:06:51.148Z,0.97
2023-03-10T02:09:20.066Z,0.60
2023-03-10T02:11:49.455Z,0.70
2023-03-10T02:14:17.555Z,0.53
2023-03-10T02:16:44.490Z,0.60
2023-03-10T02:19:32.534Z,0.90
2023-03-10T02:22:08.680Z,0.80
2023-03-10T02:24:44.451Z,0.73
2023-03-10T02:27:19.972Z,0.50
2023-03-10T02:29:58.833Z,1.47
2023-03-10T02:32:32.762Z,0.60
2023-03-10T02:35:00.382Z,0.30
2023-03-10T02:37:30.882Z,0.90
2023-03-10T02:39:59.095Z,0.70
2023-03-10T02:42:30.983Z,0.60
2023-03-10T02:44:57.894Z,0.30
2023-03-10T02:47:24.749Z,0.80
2023-03-10T02:49:51.754Z,0.60
2023-03-10T02:52:39.894Z,0.70
2023-03-10T02:55:07.341Z,0.80
2023-03-10T02:57:34.165Z,0.70
2023-03-10T03:00:01.547Z,0.60
2023-03-10T03:02:30.057Z,0.50
2023-03-10T03:04:56.911Z,0.60
2023-03-10T03:07:24.208Z,0.73
2023-03-10T03:09:51.346Z,0.70
2023-03-10T03:12:18.223Z,0.60
2023-03-10T03:14:45.005Z,0.70
2023-03-10T03:17:12.032Z,0.80
2023-03-10T03:19:38.912Z,0.53
2023-03-10T03:22:05.818Z,0.47
2023-03-10T03:24:32.745Z,0.70
2023-03-10T03:26:59.753Z,0.40
2023-03-10T03:29:28.321Z,0.37
2023-03-10T03:31:55.471Z,0.40
2023-03-10T03:34:26.082Z,0.93
2023-03-10T03:36:56.876Z,0.57
2023-03-10T03:39:29.313Z,1.40
2023-03-10T03:41:59.845Z,0.70
2023-03-10T03:44:31.484Z,0.60
2023-03-10T03:46:58.567Z,0.60
2023-03-10T03:49:26.273Z,0.77
2023-03-10T03:51:53.787Z,0.60
2023-03-10T03:54:23.128Z,0.65
2023-03-10T03:56:49.956Z,0.70
2023-03-10T03:59:16.857Z,0.47
2023-03-10T04:01:44.682Z,0.70
2023-03-10T04:04:11.623Z,0.60
2023-03-10T04:06:38.508Z,0.47
2023-03-10T04:09:08.039Z,0.73
2023-03-10T04:11:34.887Z,0.67
2023-03-10T04:14:02.276Z,0.57
2023-03-10T04:16:29.294Z,0.53
2023-03-10T04:22:56.346Z,0.52
2023-03-10T04:25:28.816Z,0.70
2023-03-10T04:27:57.908Z,0.97
2023-03-10T04:30:29.283Z,0.70
2023-03-10T04:32:59.535Z,1.37
2023-03-10T04:37:56.485Z,1.10
2023-03-10T04:40:24.864Z,1.13
2023-03-10T04:42:52.732Z,0.90
2023-03-10T04:45:19.826Z,1.30
2023-03-10T04:47:46.745Z,4.80
2023-03-10T04:50:17.494Z,1.30
2023-03-10T04:52:46.713Z,1.43
2023-03-10T04:55:14.176Z,1.43
2023-03-10T04:57:42.119Z,2.07
2023-03-10T05:00:12.804Z,2.23
2023-03-10T05:02:41.328Z,1.63
2023-03-10T05:05:09.373Z,1.60
2023-03-10T05:07:38.722Z,1.90
2023-03-10T05:10:06.845Z,2.17
2023-03-10T05:12:33.826Z,2.17
2023-03-10T05:15:01.067Z,2.93
2023-03-10T05:17:29.478Z,2.40
2023-03-10T05:19:58.103Z,2.03
2023-03-10T05:22:25.604Z,3.13
2023-03-10T05:24:52.847Z,3.80
2023-03-10T05:27:22.076Z,3.77
2023-03-10T05:29:49.729Z,3.17
2023-03-10T05:32:23.423Z,3.20
2023-03-10T05:34:50.391Z,3.30
2023-03-10T05:37:18.334Z,3.43
2023-03-10T05:39:45.518Z,3.90
2023-03-10T05:42:18.475Z,3.70
2023-03-10T05:44:45.360Z,4.03
2023-03-10T05:47:14.086Z,4.90
2023-03-10T05:49:40.907Z,4.80
2023-03-10T05:52:08.533Z,4.23
2023-03-10T05:54:37.841Z,4.07
2023-03-10T05:57:05.350Z,3.10
2023-03-10T05:59:33.092Z,4.57
2023-03-10T06:02:00.108Z,2.70
2023-03-10T06:04:32.164Z,3.53
2023-03-10T06:07:02.879Z,3.13
2023-03-10T06:09:31.469Z,4.03
2023-03-10T06:11:59.626Z,3.23
2023-03-10T06:14:26.500Z,2.97
2023-03-10T06:16:56.794Z,3.10
2023-03-10T06:21:51.335Z,2.80
2023-03-10T06:24:18.464Z,2.70
2023-03-10T06:26:45.387Z,3.47
2023-03-10T06:29:12.270Z,3.20
2023-03-10T06:31:39.180Z,3.10
2023-03-10T06:34:06.101Z,3.40
2023-03-10T06:36:32.954Z,4.20
2023-03-10T06:38:59.844Z,5.07
2023-03-10T06:41:28.080Z,4.30
2023-03-10T06:43:55.005Z,5.20
2023-03-10T06:46:21.996Z,3.50
2023-03-10T06:48:49.877Z,3.83
2023-03-10T06:51:19.451Z,3.43
2023-03-10T06:53:47.296Z,3.20
2023-03-10T06:56:20.085Z,3.83
2023-03-10T06:58:47.432Z,3.23
2023-03-10T07:01:32.246Z,3.57
2023-03-10T07:04:01.120Z,4.37
2023-03-10T07:06:28.353Z,5.37
2023-03-10T07:08:55.190Z,5.13
2023-03-10T07:11:23.354Z,4.70
2023-03-10T07:13:50.299Z,4.80
2023-03-10T07:16:17.860Z,2.92
2023-03-10T07:18:44.810Z,3.03
2023-03-10T07:21:14.846Z,2.55
2023-03-10T07:23:41.782Z,2.15
2023-03-10T07:26:09.095Z,1.92
2023-03-10T07:28:37.552Z,2.05
2023-03-10T07:31:06.622Z,2.85
2023-03-10T07:33:33.983Z,2.00
2023-03-10T07:36:05.530Z,1.88
2023-03-10T07:38:32.438Z,1.92
2023-03-10T07:41:01.847Z,2.35
2023-03-10T07:43:28.822Z,1.65
2023-03-10T07:45:55.780Z,1.40
2023-03-10T07:48:22.608Z,1.50
2023-03-10T07:50:59.804Z,1.80
2023-03-10T07:53:27.141Z,1.25
2023-03-10T07:55:54.026Z,1.27
2023-03-10T07:58:21.076Z,1.80
2023-03-10T08:00:57.281Z,1.60
2023-03-10T08:03:25.859Z,2.15
2023-03-10T08:05:53.103Z,1.35
2023-03-10T08:08:20.411Z,1.30
2023-03-10T08:10:47.408Z,1.27
2023-03-10T08:13:14.794Z,1.33
2023-03-10T08:15:42.344Z,1.23
2023-03-10T08:18:12.364Z,1.75
2023-03-10T08:20:40.650Z,1.20
2023-03-10T08:23:07.615Z,1.20
2023-03-10T08:25:34.558Z,1.70
2023-03-10T08:28:01.608Z,1.75
2023-03-10T08:30:28.645Z,1.63
2023-03-10T08:32:55.500Z,1.52
2023-03-10T08:35:22.338Z,1.85
2023-03-10T08:37:52.421Z,2.50
2023-03-10T08:40:21.311Z,2.65
2023-03-10T08:42:48.679Z,3.33
2023-03-10T08:45:15.610Z,2.10
2023-03-10T08:47:42.439Z,2.60
2023-03-10T08:50:09.911Z,1.98
2023-03-10T08:52:36.885Z,1.90
2023-03-10T08:55:05.310Z,2.00
2023-03-10T08:57:32.545Z,1.98
2023-03-10T08:59:59.896Z,1.83
2023-03-10T09:02:28.296Z,1.80
2023-03-10T09:04:55.250Z,1.90
2023-03-10T09:07:22.105Z,1.50
2023-03-10T09:09:49.129Z,1.50
2023-03-10T09:12:15.963Z,1.67
2023-03-10T09:14:42.809Z,1.10
2023-03-10T09:17:11.835Z,1.15
2023-03-10T09:19:39.019Z,1.13
2023-03-10T09:22:06.093Z,2.38
2023-03-10T09:24:33.106Z,1.83
2023-03-10T09:27:00.255Z,1.30
2023-03-10T09:29:42.251Z,1.27
2023-03-10T09:32:10.471Z,1.25
2023-03-10T09:34:37.463Z,1.60
2023-03-10T09:37:06.860Z,1.77
2023-03-10T09:39:35.167Z,1.77
2023-03-10T09:42:37.032Z,2.15
2023-03-10T09:45:23.282Z,1.60
2023-03-10T09:48:04.826Z,1.83
2023-03-10T09:50:49.748Z,2.00
2023-03-10T09:53:41.612Z,1.67
2023-03-10T09:56:14.380Z,1.63
2023-03-10T09:58:48.294Z,2.00
2023-03-10T10:01:24.098Z,1.67
2023-03-10T10:03:56.843Z,1.27
2023-03-10T10:06:33.284Z,1.60
2023-03-10T10:09:09.432Z,1.75
2023-03-10T10:15:39.726Z,2.28
2023-03-10T10:18:20.851Z,2.03
2023-03-10T10:21:14.004Z,1.38
2023-03-10T10:23:51.112Z,1.52
2023-03-10T10:26:21.313Z,1.95
2023-03-10T10:29:01.406Z,1.88
2023-03-10T10:31:30.843Z,2.08
2023-03-10T10:34:21.725Z,2.27
2023-03-10T10:36:57.957Z,1.88
2023-03-10T10:39:58.321Z,1.42
2023-03-10T10:42:33.348Z,1.70
2023-03-10T10:45:25.512Z,1.75
2023-03-10T10:47:52.858Z,2.03
2023-03-10T10:50:28.073Z,2.17
2023-03-10T10:53:15.914Z,1.85
2023-03-10T10:55:44.888Z,2.22
2023-03-10T10:58:31.841Z,2.25
2023-03-10T11:01:07.436Z,2.70
2023-03-10T11:03:37.032Z,1.75
2023-03-10T11:06:17.960Z,2.20
2023-03-10T11:08:50.948Z,1.75
2023-03-10T11:11:52.001Z,1.80
2023-03-10T11:17:14.505Z,1.95
2023-03-10T11:20:09.255Z,1.88
2023-03-10T11:23:03.845Z,2.08
2023-03-10T11:25:47.162Z,1.95
2023-03-10T11:28:16.739Z,2.10
2023-03-10T11:31:04.200Z,1.53
2023-03-10T11:34:05.069Z,1.80
2023-03-10T11:36:59.749Z,2.00
2023-03-10T11:39:51.303Z,2.22
2023-03-10T11:42:31.771Z,2.03
2023-03-10T11:45:26.319Z,2.38
2023-03-10T11:48:12.182Z,1.50
2023-03-10T11:50:52.946Z,2.88
2023-03-10T11:53:44.420Z,2.00
2023-03-10T11:56:14.909Z,2.33
2023-03-10T12:01:41.918Z,1.83
2023-03-10T12:04:21.549Z,2.00
2023-03-10T12:06:55.148Z,1.60
2023-03-10T12:09:32.045Z,1.73
2023-03-10T12:12:02.084Z,2.22
2023-03-10T12:14:29.229Z,1.58
2023-03-10T12:16:56.774Z,1.90
2023-03-10T12:19:23.616Z,2.30
2023-03-10T12:22:24.889Z,2.20
2023-03-10T12:24:53.137Z,2.10
2023-03-10T12:27:20.012Z,1.55
2023-03-10T12:29:47.107Z,1.77
2023-03-10T12:32:52.468Z,2.50
2023-03-10T12:35:23.433Z,2.50
2023-03-10T12:37:50.271Z,2.75
2023-03-10T12:40:52.029Z,2.40
2023-03-10T12:43:46.941Z,1.70
2023-03-10T12:46:22.996Z,2.25
2023-03-10T12:49:02.225Z,1.40
2023-03-10T12:51:31.158Z,2.30
2023-03-10T12:54:23.713Z,1.92
2023-03-10T12:57:17.036Z,2.20
2023-03-10T12:59:59.866Z,2.65
2023-03-10T13:02:37.417Z,2.30
2023-03-10T13:05:07.919Z,2.30
2023-03-10T13:10:03.547Z,2.78
2023-03-10T13:12:37.552Z,2.70
2023-03-10T13:15:08.243Z,3.13
2023-03-10T13:17:35.209Z,3.08
2023-03-10T13:20:11.347Z,2.60
2023-03-10T13:22:38.294Z,2.58
2023-03-10T13:25:08.030Z,2.65
2023-03-10T13:27:35.440Z,3.15
2023-03-10T13:30:23.588Z,3.38
2023-03-10T13:32:58.684Z,2.30
2023-03-10T13:35:29.691Z,1.90
2023-03-10T13:38:22.122Z,2.22
2023-03-10T13:40:59.141Z,1.58
2023-03-10T13:43:43.589Z,1.98
2023-03-10T13:46:30.011Z,1.38
2023-03-10T13:49:06.400Z,1.58
2023-03-10T13:51:36.190Z,1.83
2023-03-10T13:54:18.669Z,1.90
2023-03-10T13:56:47.219Z,2.35
2023-03-10T13:59:17.124Z,2.83
2023-03-10T14:01:50.051Z,1.65
2023-03-10T14:04:37.561Z,2.10
2023-03-10T14:07:10.273Z,1.55
2023-03-10T14:09:37.509Z,2.25
2023-03-10T14:12:04.589Z,2.17
2023-03-10T14:14:36.633Z,1.70
2023-03-10T14:17:05.017Z,1.90
2023-03-10T14:19:43.948Z,1.90
2023-03-10T14:22:31.808Z,1.92
2023-03-10T14:25:00.884Z,1.77
2023-03-10T14:27:28.384Z,1.70
2023-03-10T14:30:00.100Z,2.28
2023-03-10T14:32:28.160Z,2.40
2023-03-10T14:34:55.011Z,2.00
2023-03-10T14:37:21.855Z,2.63
2023-03-10T14:39:48.761Z,3.17
2023-03-10T14:42:23.240Z,2.55
2023-03-10T14:44:50.772Z,3.15
2023-03-10T14:47:18.442Z,2.13
2023-03-10T14:49:45.753Z,2.50
2023-03-10T14:52:17.666Z,2.88
2023-03-10T14:54:44.967Z,3.25
2023-03-10T14:57:14.249Z,2.95
2023-03-10T14:59:41.218Z,2.17
2023-03-10T15:02:20.231Z,2.83
2023-03-10T15:04:47.235Z,3.25
2023-03-10T15:07:15.306Z,2.50
2023-03-10T15:09:42.218Z,2.42
2023-03-10T15:12:09.717Z,2.65
2023-03-10T15:14:36.829Z,3.30
2023-03-10T15:17:04.616Z,2.67
2023-03-10T15:19:31.633Z,2.25
2023-03-10T15:21:58.494Z,2.72
2023-03-10T15:24:25.367Z,2.40
2023-03-10T15:26:52.267Z,2.55
2023-03-10T15:29:20.120Z,2.85
2023-03-10T15:31:47.119Z,2.15
2023-03-10T15:34:14.115Z,2.03
2023-03-10T15:36:41.287Z,2.47
2023-03-10T15:39:09.856Z,2.63
2023-03-10T15:41:39.316Z,2.25
2023-03-10T15:44:07.294Z,3.33
2023-03-10T15:46:34.244Z,3.03
2023-03-10T15:49:03.341Z,3.40
2023-03-10T15:51:30.252Z,2.60
2023-03-10T15:53:57.081Z,2.55
2023-03-10T15:56:24.129Z,2.75
2023-03-10T15:58:51.174Z,2.90
2023-03-10T16:01:20.612Z,2.58
2023-03-10T16:03:48.961Z,2.40
2023-03-10T16:06:16.005Z,2.67
2023-03-10T16:08:43.024Z,2.60
2023-03-10T16:11:20.708Z,3.25
2023-03-10T16:13:49.693Z,1.90
2023-03-10T16:16:19.652Z,2.70
2023-03-10T16:18:47.357Z,2.88
2023-03-10T16:21:17.449Z,2.30
2023-03-10T16:23:45.304Z,2.67
2023-03-10T16:26:14.874Z,2.33
2023-03-10T16:28:44.380Z,3.08
2023-03-10T16:31:13.417Z,2.97
2023-03-10T16:33:40.902Z,2.45
2023-03-10T16:36:13.010Z,1.85
2023-03-10T16:38:40.005Z,2.05
2023-03-10T16:41:08.750Z,2.47
2023-03-10T16:43:36.127Z,2.40
2023-03-10T16:46:12.174Z,2.40
2023-03-10T16:48:44.880Z,2.55
2023-03-10T16:51:21.082Z,2.50
2023-03-10T16:53:48.513Z,3.30
2023-03-10T16:56:16.048Z,3.03
2023-03-10T16:58:42.975Z,2.88
2023-03-10T17:01:10.125Z,3.83
2023-03-10T17:03:40.006Z,3.53
2023-03-10T17:06:14.496Z,4.07
2023-03-10T17:08:41.762Z,3.63
2023-03-10T17:11:18.034Z,4.32
2023-03-10T17:13:47.277Z,3.90
2023-03-10T17:16:15.869Z,3.88
2023-03-10T17:18:44.237Z,3.60
2023-03-10T17:21:23.105Z,4.10
2023-03-10T17:23:50.494Z,5.13
2023-03-10T17:26:18.579Z,7.45
2023-03-10T17:28:48.280Z,5.50
2023-03-10T17:31:20.534Z,6.70
2023-03-10T17:33:47.801Z,5.93
2023-03-10T17:36:16.834Z,6.45
2023-03-10T17:38:44.190Z,7.20
2023-03-10T17:41:13.547Z,6.50
2023-03-10T17:43:40.509Z,7.60
2023-03-10T17:46:10.961Z,7.40
2023-03-10T17:48:37.897Z,8.77
2023-03-10T17:51:05.024Z,8.32
2023-03-10T17:53:32.405Z,9.40
2023-03-10T17:56:06.266Z,8.65
2023-03-10T17:58:34.133Z,8.10
2023-03-10T18:01:12.217Z,7.25
2023-03-10T18:03:39.187Z,7.53
2023-03-10T18:06:16.207Z,8.05
2023-03-10T18:08:43.321Z,8.60
2023-03-10T18:11:11.175Z,8.13
2023-03-10T18:13:38.793Z,8.90
2023-03-10T18:16:07.261Z,7.68
2023-03-10T18:18:34.185Z,7.30
2023-03-10T18:21:01.011Z,7.18
2023-03-10T18:23:27.988Z,6.60
2023-03-10T18:25:54.903Z,7.45
2023-03-10T18:28:23.502Z,8.80
2023-03-10T18:30:51.986Z,8.93
2023-03-10T18:33:19.289Z,8.93
2023-03-10T18:35:46.912Z,7.00
2023-03-10T18:38:15.796Z,6.35
2023-03-10T18:40:42.863Z,4.63
2023-03-10T18:43:10.313Z,5.00
2023-03-10T18:45:39.479Z,5.85
2023-03-10T18:48:07.609Z,4.65
2023-03-10T18:50:34.581Z,4.60
2023-03-10T18:53:01.484Z,5.05
2023-03-10T18:55:28.271Z,5.35
2023-03-10T18:57:55.255Z,5.40
2023-03-10T19:00:22.494Z,7.15
2023-03-10T19:02:52.936Z,5.18
2023-03-10T19:05:21.042Z,6.95
2023-03-10T19:07:47.920Z,4.75
2023-03-10T19:10:17.424Z,5.55
2023-03-10T19:12:44.361Z,6.68
2023-03-10T19:15:14.533Z,5.53
2023-03-10T19:17:41.956Z,20.70
2023-03-10T19:20:12.230Z,16.50
2023-03-10T19:22:40.438Z,11.30
2023-03-10T19:25:09.572Z,8.73
2023-03-10T19:27:39.894Z,5.65
2023-03-10T19:30:19.872Z,5.15
2023-03-10T19:32:47.830Z,6.22
2023-03-10T19:35:15.639Z,6.32
2023-03-10T19:37:46.158Z,6.20
2023-03-10T19:40:15.911Z,6.28
2023-03-10T19:42:45.432Z,5.45
2023-03-10T19:45:14.862Z,5.50
2023-03-10T19:47:42.448Z,6.38
2023-03-10T19:50:12.175Z,5.68
2023-03-10T19:52:43.694Z,6.85
2023-03-10T19:55:19.501Z,6.20
2023-03-10T19:57:48.616Z,5.57
2023-03-10T20:00:18.839Z,4.15
2023-03-10T20:02:45.999Z,4.50
2023-03-10T20:05:16.358Z,5.20
2023-03-10T20:10:11.964Z,4.75
2023-03-10T20:12:38.903Z,4.95
2023-03-10T20:15:06.905Z,5.65
2023-03-10T20:17:33.992Z,5.03
2023-03-10T20:20:00.832Z,5.38
2023-03-10T20:22:27.775Z,5.28
2023-03-10T20:24:54.635Z,6.75
2023-03-10T20:27:23.052Z,6.25
2023-03-10T20:29:50.014Z,6.90
2023-03-10T20:32:16.861Z,6.20
2023-03-10T20:34:43.672Z,8.05
2023-03-10T20:37:10.482Z,8.65
2023-03-10T20:39:37.298Z,10.07
2023-03-10T20:42:04.204Z,10.35
2023-03-10T20:44:31.134Z,11.70
2023-03-10T20:46:58.003Z,8.85
2023-03-10T20:49:25.001Z,11.85
2023-03-10T20:51:51.864Z,13.48
2023-03-10T20:54:18.984Z,14.60
2023-03-10T20:56:45.803Z,14.93
2023-03-10T20:59:12.710Z,9.02
2023-03-10T21:01:42.724Z,7.55
2023-03-10T21:04:10.045Z,6.55
2023-03-10T21:06:38.366Z,5.03
2023-03-10T21:09:07.952Z,5.78
2023-03-10T21:11:35.744Z,6.15
2023-03-10T21:14:02.685Z,6.38
2023-03-10T21:16:29.792Z,5.75
2023-03-10T21:18:56.665Z,6.53
2023-03-10T21:21:23.549Z,5.65
2023-03-10T21:23:50.402Z,5.95
2023-03-10T21:26:20.702Z,4.70
2023-03-10T21:28:47.826Z,5.97
2023-03-10T21:31:15.500Z,6.00
2023-03-10T21:33:42.696Z,4.85
2023-03-10T21:36:17.521Z,5.97
2023-03-10T21:38:46.955Z,6.30
2023-03-10T21:41:24.844Z,6.80
2023-03-10T21:43:56.731Z,5.18
2023-03-10T21:46:24.507Z,3.85
2023-03-10T21:48:52.312Z,5.90
2023-03-10T21:51:21.770Z,4.63
2023-03-10T21:53:49.265Z,4.63
2023-03-10T21:56:17.800Z,5.13
2023-03-10T21:58:46.043Z,3.95
2023-03-10T22:01:15.485Z,4.05
2023-03-10T22:03:43.115Z,3.80
2023-03-10T22:06:10.503Z,3.97
2023-03-10T22:08:38.275Z,3.75
2023-03-10T22:11:06.925Z,3.30
2023-03-10T22:13:35.245Z,2.50
2023-03-10T22:16:03.621Z,3.78
2023-03-10T22:18:31.155Z,3.70
2023-03-10T22:20:58.318Z,3.03
2023-03-10T22:23:25.213Z,3.60
2023-03-10T22:25:52.063Z,2.58
2023-03-10T22:28:18.892Z,2.97
2023-03-10T22:30:45.748Z,2.45
2023-03-10T22:33:12.561Z,2.95
2023-03-10T22:35:39.481Z,2.67
2023-03-10T22:41:48.129Z,2.55
2023-03-10T22:44:15.247Z,2.08
2023-03-10T22:46:46.613Z,3.45
2023-03-10T22:49:14.283Z,3.08
2023-03-10T22:51:41.553Z,4.38
2023-03-10T22:54:08.426Z,2.63
2023-03-10T22:56:35.293Z,3.90
2023-03-10T22:59:04.397Z,2.35
2023-03-10T23:01:31.321Z,3.00
2023-03-10T23:03:58.415Z,2.67
2023-03-10T23:06:29.066Z,3.08
2023-03-10T23:08:56.701Z,2.38
2023-03-10T23:11:23.863Z,2.78
2023-03-10T23:13:51.514Z,2.88
2023-03-10T23:16:19.971Z,2.97
2023-03-10T23:18:47.178Z,3.00
2023-03-10T23:21:14.212Z,2.60
2023-03-10T23:23:43.726Z,2.95
2023-03-10T23:26:11.702Z,2.17
2023-03-10T23:28:38.945Z,2.35
2023-03-10T23:31:06.635Z,2.13
2023-03-10T23:33:33.856Z,2.60
2023-03-10T23:36:00.917Z,2.60
2023-03-10T23:38:28.118Z,2.17
2023-03-10T23:40:55.584Z,1.98
2023-03-10T23:43:22.954Z,3.60
2023-03-10T23:45:50.085Z,2.00
2023-03-10T23:48:18.551Z,2.88
2023-03-10T23:50:47.612Z,1.60
2023-03-10T23:53:16.483Z,2.17
2023-03-10T23:55:45.853Z,2.45
2023-03-10T23:58:14.455Z,1.73
